sensor_id;sensor_type;location;lat;lon;timestamp;P1;durP1;ratioP1;P2;durP2;ratioP2
801;SDS011;383;48.766;9.270;2022-12-18T03:49:33;78.47;;;24.67;;
801;SDS011;383;48.766;9.270;2022-12-18T03:52:04;58.58;;;22.90;;
801;SDS011;383;48.766;9.270;2022-12-18T03:54:35;68.05;;;22.83;;
801;SDS011;383;48.766;9.270;2022-12-18T03:57:03;66.07;;;23.10;;
801;SDS011;383;48.766;9.270;2022-12-18T03:59:33;64.07;;;20.95;;
801;SDS011;383;48.766;9.270;2022-12-18T04:02:04;73.07;;;23.27;;
801;SDS011;383;48.766;9.270;2022-12-18T04:04:32;63.17;;;18.92;;
801;SDS011;383;48.766;9.270;2022-12-18T04:07:00;75.45;;;23.38;;
801;SDS011;383;48.766;9.270;2022-12-18T04:09:28;71.03;;;21.33;;
801;SDS011;383;48.766;9.270;2022-12-18T04:11:58;69.63;;;20.55;;
801;SDS011;383;48.766;9.270;2022-12-18T04:14:24;70.07;;;22.30;;
801;SDS011;383;48.766;9.270;2022-12-18T04:16:51;69.28;;;23.80;;
801;SDS011;383;48.766;9.270;2022-12-18T04:19:19;58.97;;;22.15;;
801;SDS011;383;48.766;9.270;2022-12-18T04:21:46;72.88;;;21.40;;
801;SDS011;383;48.766;9.270;2022-12-18T04:24:13;72.18;;;20.75;;
801;SDS011;383;48.766;9.270;2022-12-18T04:26:40;67.40;;;20.27;;
801;SDS011;383;48.766;9.270;2022-12-18T04:29:06;60.38;;;19.17;;
801;SDS011;383;48.766;9.270;2022-12-18T04:31:33;71.75;;;22.50;;
801;SDS011;383;48.766;9.270;2022-12-18T04:34:00;73.35;;;22.63;;
801;SDS011;383;48.766;9.270;2022-12-18T04:36:29;67.95;;;20.35;;
801;SDS011;383;48.766;9.270;2022-12-18T04:38:56;62.38;;;19.10;;
801;SDS011;383;48.766;9.270;2022-12-18T04:41:22;62.28;;;20.17;;
801;SDS011;383;48.766;9.270;2022-12-18T04:43:49;58.83;;;18.48;;
801;SDS011;383;48.766;9.270;2022-12-18T04:46:16;59.30;;;20.23;;
801;SDS011;383;48.766;9.270;2022-12-18T04:48:44;67.80;;;21.25;;
801;SDS011;383;48.766;9.270;2022-12-18T04:51:12;63.20;;;21.48;;
801;SDS011;383;48.766;9.270;2022-12-18T04:53:40;70.10;;;20.95;;
801;SDS011;383;48.766;9.270;2022-12-18T04:56:08;56.70;;;18.67;;
801;SDS011;383;48.766;9.270;2022-12-18T04:58:36;66.53;;;20.20;;
801;SDS011;383;48.766;9.270;2022-12-18T05:01:04;54.25;;;19.70;;
801;SDS011;383;48.766;9.270;2022-12-18T05:03:32;59.65;;;21.20;;
801;SDS011;383;48.766;9.270;2022-12-18T05:06:00;73.80;;;21.50;;
801;SDS011;383;48.766;9.270;2022-12-18T05:08:27;61.70;;;21.25;;
801;SDS011;383;48.766;9.270;2022-12-18T05:10:59;70.07;;;18.15;;
801;SDS011;383;48.766;9.270;2022-12-18T05:13:26;62.97;;;19.40;;
801;SDS011;383;48.766;9.270;2022-12-18T05:15:54;60.42;;;19.73;;
801;SDS011;383;48.766;9.270;2022-12-18T05:18:21;55.22;;;20.23;;
801;SDS011;383;48.766;9.270;2022-12-18T05:20:48;71.03;;;17.27;;
801;SDS011;383;48.766;9.270;2022-12-18T05:23:15;56.50;;;20.30;;
801;SDS011;383;48.766;9.270;2022-12-18T05:25:42;59.22;;;19.90;;
801;SDS011;383;48.766;9.270;2022-12-18T05:28:16;70.10;;;20.55;;
801;SDS011;383;48.766;9.270;2022-12-18T05:30:44;52.13;;;18.45;;
801;SDS011;383;48.766;9.270;2022-12-18T05:33:15;48.72;;;15.32;;
801;SDS011;383;48.766;9.270;2022-12-18T05:35:42;49.17;;;17.90;;
801;SDS011;383;48.766;9.270;2022-12-18T05:38:09;62.00;;;16.45;;
801;SDS011;383;48.766;9.270;2022-12-18T05:40:36;58.42;;;19.17;;
801;SDS011;383;48.766;9.270;2022-12-18T05:43:03;72.68;;;20.17;;
801;SDS011;383;48.766;9.270;2022-12-18T05:45:31;62.13;;;18.85;;
801;SDS011;383;48.766;9.270;2022-12-18T05:47:58;49.30;;;17.40;;
801;SDS011;383;48.766;9.270;2022-12-18T05:50:25;56.75;;;19.13;;
801;SDS011;383;48.766;9.270;2022-12-18T05:52:52;58.17;;;18.45;;
801;SDS011;383;48.766;9.270;2022-12-18T05:55:19;53.17;;;16.85;;
801;SDS011;383;48.766;9.270;2022-12-18T05:57:45;73.68;;;21.50;;
801;SDS011;383;48.766;9.270;2022-12-18T06:00:15;59.10;;;20.05;;
801;SDS011;383;48.766;9.270;2022-12-18T06:02:47;62.38;;;20.02;;
801;SDS011;383;48.766;9.270;2022-12-18T06:05:14;61.35;;;18.85;;
801;SDS011;383;48.766;9.270;2022-12-18T06:07:41;58.92;;;19.63;;
801;SDS011;383;48.766;9.270;2022-12-18T06:10:08;62.88;;;19.83;;
801;SDS011;383;48.766;9.270;2022-12-18T06:12:35;48.63;;;16.95;;
801;SDS011;383;48.766;9.270;2022-12-18T06:15:01;57.75;;;19.83;;
801;SDS011;383;48.766;9.270;2022-12-18T06:17:29;52.38;;;19.90;;
801;SDS011;383;48.766;9.270;2022-12-18T06:19:57;67.05;;;21.83;;
801;SDS011;383;48.766;9.270;2022-12-18T06:22:24;56.47;;;18.98;;
801;SDS011;383;48.766;9.270;2022-12-18T06:24:51;54.53;;;18.52;;
801;SDS011;383;48.766;9.270;2022-12-18T06:27:21;55.40;;;18.30;;
801;SDS011;383;48.766;9.270;2022-12-18T06:29:48;55.40;;;20.55;;
801;SDS011;383;48.766;9.270;2022-12-18T06:32:15;76.88;;;22.05;;
801;SDS011;383;48.766;9.270;2022-12-18T06:34:44;51.20;;;19.63;;
801;SDS011;383;48.766;9.270;2022-12-18T06:37:15;65.78;;;20.73;;
801;SDS011;383;48.766;9.270;2022-12-18T06:39:42;47.50;;;18.27;;
801;SDS011;383;48.766;9.270;2022-12-18T06:42:09;62.20;;;18.85;;
801;SDS011;383;48.766;9.270;2022-12-18T06:44:36;66.55;;;20.70;;
801;SDS011;383;48.766;9.270;2022-12-18T06:47:03;55.08;;;20.42;;
801;SDS011;383;48.766;9.270;2022-12-18T06:49:30;73.85;;;19.23;;
801;SDS011;383;48.766;9.270;2022-12-18T06:51:58;60.25;;;18.50;;
801;SDS011;383;48.766;9.270;2022-12-18T06:54:27;55.10;;;18.48;;
801;SDS011;383;48.766;9.270;2022-12-18T06:56:53;59.65;;;20.58;;
801;SDS011;383;48.766;9.270;2022-12-18T06:59:21;53.10;;;18.98;;
801;SDS011;383;48.766;9.270;2022-12-18T07:01:47;74.93;;;22.08;;
801;SDS011;383;48.766;9.270;2022-12-18T07:04:14;53.00;;;18.30;;
801;SDS011;383;48.766;9.270;2022-12-18T07:06:41;52.83;;;18.02;;
801;SDS011;383;48.766;9.270;2022-12-18T07:09:08;57.38;;;20.20;;
801;SDS011;383;48.766;9.270;2022-12-18T07:11:36;61.33;;;17.70;;
801;SDS011;383;48.766;9.270;2022-12-18T07:14:03;59.97;;;18.58;;
801;SDS011;383;48.766;9.270;2022-12-18T07:16:29;62.17;;;19.83;;
801;SDS011;383;48.766;9.270;2022-12-18T07:18:56;61.25;;;18.98;;
801;SDS011;383;48.766;9.270;2022-12-18T07:21:23;57.50;;;20.88;;
801;SDS011;383;48.766;9.270;2022-12-18T07:23:51;59.65;;;18.80;;
801;SDS011;383;48.766;9.270;2022-12-18T07:26:19;59.13;;;20.95;;
801;SDS011;383;48.766;9.270;2022-12-18T07:28:48;40.47;;;16.27;;
801;SDS011;383;48.766;9.270;2022-12-18T07:31:16;49.10;;;18.25;;
801;SDS011;383;48.766;9.270;2022-12-18T07:33:44;66.72;;;20.50;;
801;SDS011;383;48.766;9.270;2022-12-18T07:36:11;53.38;;;17.33;;
801;SDS011;383;48.766;9.270;2022-12-18T07:38:39;63.40;;;21.15;;
801;SDS011;383;48.766;9.270;2022-12-18T07:41:07;49.00;;;17.33;;
801;SDS011;383;48.766;9.270;2022-12-18T07:43:35;54.22;;;18.65;;
801;SDS011;383;48.766;9.270;2022-12-18T07:46:04;66.13;;;23.42;;
801;SDS011;383;48.766;9.270;2022-12-18T07:48:31;62.08;;;21.30;;
801;SDS011;383;48.766;9.270;2022-12-18T07:50:58;54.75;;;18.52;;
801;SDS011;383;48.766;9.270;2022-12-18T07:53:29;67.13;;;20.45;;
801;SDS011;383;48.766;9.270;2022-12-18T07:55:56;64.57;;;24.25;;
801;SDS011;383;48.766;9.270;2022-12-18T07:58:24;63.50;;;24.13;;
801;SDS011;383;48.766;9.270;2022-12-18T08:00:51;80.68;;;22.23;;
801;SDS011;383;48.766;9.270;2022-12-18T08:03:19;53.58;;;19.90;;
801;SDS011;383;48.766;9.270;2022-12-18T08:05:46;59.45;;;19.77;;
801;SDS011;383;48.766;9.270;2022-12-18T08:08:13;62.10;;;22.15;;
801;SDS011;383;48.766;9.270;2022-12-18T08:10:40;56.95;;;24.30;;
801;SDS011;383;48.766;9.270;2022-12-18T08:13:07;67.75;;;19.65;;
801;SDS011;383;48.766;9.270;2022-12-18T08:15:33;77.15;;;20.98;;
801;SDS011;383;48.766;9.270;2022-12-18T08:18:00;64.15;;;23.20;;
801;SDS011;383;48.766;9.270;2022-12-18T08:20:31;64.55;;;22.73;;
801;SDS011;383;48.766;9.270;2022-12-18T08:22:58;60.83;;;20.45;;
801;SDS011;383;48.766;9.270;2022-12-18T08:25:25;64.32;;;20.58;;
801;SDS011;383;48.766;9.270;2022-12-18T08:27:51;42.38;;;15.68;;
801;SDS011;383;48.766;9.270;2022-12-18T08:30:18;56.03;;;19.02;;
801;SDS011;383;48.766;9.270;2022-12-18T08:32:45;57.10;;;19.15;;
801;SDS011;383;48.766;9.270;2022-12-18T08:35:14;52.85;;;21.23;;
801;SDS011;383;48.766;9.270;2022-12-18T08:37:45;61.95;;;22.70;;
801;SDS011;383;48.766;9.270;2022-12-18T08:40:13;55.13;;;20.52;;
801;SDS011;383;48.766;9.270;2022-12-18T08:42:42;75.85;;;24.40;;
801;SDS011;383;48.766;9.270;2022-12-18T08:45:26;49.55;;;20.10;;
801;SDS011;383;48.766;9.270;2022-12-18T08:47:56;62.78;;;21.90;;
801;SDS011;383;48.766;9.270;2022-12-18T08:50:22;51.60;;;19.13;;
801;SDS011;383;48.766;9.270;2022-12-18T08:52:51;80.80;;;23.95;;
801;SDS011;383;48.766;9.270;2022-12-18T08:55:18;61.90;;;22.40;;
801;SDS011;383;48.766;9.270;2022-12-18T08:57:47;65.70;;;20.98;;
801;SDS011;383;48.766;9.270;2022-12-18T09:00:14;55.55;;;20.52;;
801;SDS011;383;48.766;9.270;2022-12-18T09:02:44;64.85;;;21.33;;
801;SDS011;383;48.766;9.270;2022-12-18T09:05:10;72.10;;;20.42;;
801;SDS011;383;48.766;9.270;2022-12-18T09:07:38;71.40;;;21.58;;
801;SDS011;383;48.766;9.270;2022-12-18T09:10:06;64.65;;;20.50;;
801;SDS011;383;48.766;9.270;2022-12-18T09:12:33;53.00;;;20.35;;
801;SDS011;383;48.766;9.270;2022-12-18T09:15:00;51.10;;;19.02;;
801;SDS011;383;48.766;9.270;2022-12-18T09:17:28;56.20;;;20.08;;
801;SDS011;383;48.766;9.270;2022-12-18T09:19:55;67.93;;;22.65;;
801;SDS011;383;48.766;9.270;2022-12-18T09:22:21;57.35;;;20.63;;
801;SDS011;383;48.766;9.270;2022-12-18T09:24:48;62.65;;;21.08;;
801;SDS011;383;48.766;9.270;2022-12-18T09:27:18;65.13;;;22.45;;
801;SDS011;383;48.766;9.270;2022-12-18T09:29:45;62.40;;;21.20;;
801;SDS011;383;48.766;9.270;2022-12-18T09:32:14;60.22;;;21.38;;
801;SDS011;383;48.766;9.270;2022-12-18T09:34:40;77.05;;;25.70;;
801;SDS011;383;48.766;9.270;2022-12-18T09:37:07;102.65;;;31.63;;
801;SDS011;383;48.766;9.270;2022-12-18T09:39:34;79.88;;;27.98;;
801;SDS011;383;48.766;9.270;2022-12-18T09:42:01;93.63;;;29.90;;
801;SDS011;383;48.766;9.270;2022-12-18T09:44:44;69.88;;;26.15;;
801;SDS011;383;48.766;9.270;2022-12-18T09:47:15;69.75;;;25.17;;
801;SDS011;383;48.766;9.270;2022-12-18T09:49:45;68.20;;;23.88;;
801;SDS011;383;48.766;9.270;2022-12-18T09:52:15;64.63;;;22.02;;
801;SDS011;383;48.766;9.270;2022-12-18T09:54:46;81.85;;;24.80;;
801;SDS011;383;48.766;9.270;2022-12-18T09:57:18;62.88;;;23.73;;
801;SDS011;383;48.766;9.270;2022-12-18T09:59:49;73.13;;;24.08;;
801;SDS011;383;48.766;9.270;2022-12-18T10:02:22;68.03;;;22.48;;
801;SDS011;383;48.766;9.270;2022-12-18T10:04:56;54.72;;;21.15;;
801;SDS011;383;48.766;9.270;2022-12-18T10:07:33;68.35;;;23.08;;
801;SDS011;383;48.766;9.270;2022-12-18T10:10:10;76.10;;;25.33;;
801;SDS011;383;48.766;9.270;2022-12-18T10:12:45;69.75;;;24.60;;
801;SDS011;383;48.766;9.270;2022-12-18T10:15:21;72.25;;;25.88;;
801;SDS011;383;48.766;9.270;2022-12-18T10:17:58;54.28;;;22.25;;
801;SDS011;383;48.766;9.270;2022-12-18T10:20:32;61.35;;;22.42;;
801;SDS011;383;48.766;9.270;2022-12-18T10:23:04;70.07;;;23.88;;
801;SDS011;383;48.766;9.270;2022-12-18T10:25:50;67.38;;;22.50;;
801;SDS011;383;48.766;9.270;2022-12-18T10:28:24;71.05;;;21.77;;
801;SDS011;383;48.766;9.270;2022-12-18T10:30:53;62.90;;;21.38;;
801;SDS011;383;48.766;9.270;2022-12-18T10:33:20;72.20;;;24.33;;
801;SDS011;383;48.766;9.270;2022-12-18T10:35:49;68.00;;;25.33;;
801;SDS011;383;48.766;9.270;2022-12-18T10:38:21;73.20;;;22.48;;
801;SDS011;383;48.766;9.270;2022-12-18T10:40:50;66.03;;;23.65;;
801;SDS011;383;48.766;9.270;2022-12-18T10:43:20;71.68;;;24.17;;
801;SDS011;383;48.766;9.270;2022-12-18T10:46:04;58.58;;;23.25;;
801;SDS011;383;48.766;9.270;2022-12-18T10:48:39;77.45;;;26.58;;
801;SDS011;383;48.766;9.270;2022-12-18T10:51:19;64.25;;;24.88;;
801;SDS011;383;48.766;9.270;2022-12-18T10:53:51;72.18;;;23.77;;
801;SDS011;383;48.766;9.270;2022-12-18T10:56:20;60.63;;;20.70;;
801;SDS011;383;48.766;9.270;2022-12-18T10:58:55;62.97;;;24.17;;
801;SDS011;383;48.766;9.270;2022-12-18T11:01:24;59.92;;;23.27;;
801;SDS011;383;48.766;9.270;2022-12-18T11:03:58;57.47;;;20.70;;
801;SDS011;383;48.766;9.270;2022-12-18T11:06:26;70.60;;;25.98;;
801;SDS011;383;48.766;9.270;2022-12-18T11:08:57;67.28;;;24.27;;
801;SDS011;383;48.766;9.270;2022-12-18T11:11:25;78.32;;;27.77;;
801;SDS011;383;48.766;9.270;2022-12-18T11:13:58;61.65;;;24.05;;
801;SDS011;383;48.766;9.270;2022-12-18T11:16:29;57.40;;;22.58;;
801;SDS011;383;48.766;9.270;2022-12-18T11:19:12;67.45;;;23.10;;
801;SDS011;383;48.766;9.270;2022-12-18T11:21:47;56.47;;;22.85;;
801;SDS011;383;48.766;9.270;2022-12-18T11:24:17;72.85;;;24.75;;
801;SDS011;383;48.766;9.270;2022-12-18T11:26:47;69.05;;;25.38;;
801;SDS011;383;48.766;9.270;2022-12-18T11:29:16;61.50;;;24.77;;
801;SDS011;383;48.766;9.270;2022-12-18T11:31:45;69.40;;;25.75;;
801;SDS011;383;48.766;9.270;2022-12-18T11:34:13;68.57;;;26.08;;
801;SDS011;383;48.766;9.270;2022-12-18T11:36:43;56.55;;;23.05;;
801;SDS011;383;48.766;9.270;2022-12-18T11:39:12;65.97;;;26.27;;
801;SDS011;383;48.766;9.270;2022-12-18T11:41:47;68.53;;;28.27;;
801;SDS011;383;48.766;9.270;2022-12-18T11:44:38;84.70;;;27.23;;
801;SDS011;383;48.766;9.270;2022-12-18T11:47:12;62.33;;;25.42;;
801;SDS011;383;48.766;9.270;2022-12-18T11:49:45;68.95;;;26.52;;
801;SDS011;383;48.766;9.270;2022-12-18T11:52:16;66.93;;;24.42;;
801;SDS011;383;48.766;9.270;2022-12-18T11:54:47;71.25;;;25.70;;
801;SDS011;383;48.766;9.270;2022-12-18T11:57:19;58.53;;;25.63;;
801;SDS011;383;48.766;9.270;2022-12-18T11:59:55;66.45;;;24.85;;
801;SDS011;383;48.766;9.270;2022-12-18T12:02:37;68.15;;;26.75;;
801;SDS011;383;48.766;9.270;2022-12-18T12:05:18;77.50;;;28.35;;
801;SDS011;383;48.766;9.270;2022-12-18T12:07:54;72.20;;;24.33;;
801;SDS011;383;48.766;9.270;2022-12-18T12:10:35;65.07;;;24.95;;
801;SDS011;383;48.766;9.270;2022-12-18T12:13:13;72.53;;;26.85;;
801;SDS011;383;48.766;9.270;2022-12-18T12:16:00;74.57;;;28.33;;
801;SDS011;383;48.766;9.270;2022-12-18T12:18:40;77.40;;;31.55;;
801;SDS011;383;48.766;9.270;2022-12-18T12:21:18;87.13;;;38.03;;
801;SDS011;383;48.766;9.270;2022-12-18T12:23:52;75.25;;;33.30;;
801;SDS011;383;48.766;9.270;2022-12-18T12:26:26;68.68;;;29.83;;
801;SDS011;383;48.766;9.270;2022-12-18T12:29:00;72.88;;;27.73;;
801;SDS011;383;48.766;9.270;2022-12-18T12:31:42;75.32;;;30.95;;
801;SDS011;383;48.766;9.270;2022-12-18T12:34:25;72.10;;;27.98;;
801;SDS011;383;48.766;9.270;2022-12-18T12:37:01;63.42;;;24.80;;
801;SDS011;383;48.766;9.270;2022-12-18T12:39:37;65.15;;;26.40;;
801;SDS011;383;48.766;9.270;2022-12-18T12:42:10;73.68;;;27.80;;
801;SDS011;383;48.766;9.270;2022-12-18T12:45:00;78.90;;;26.02;;
801;SDS011;383;48.766;9.270;2022-12-18T12:47:33;75.80;;;26.40;;
801;SDS011;383;48.766;9.270;2022-12-18T12:50:11;62.30;;;24.52;;
801;SDS011;383;48.766;9.270;2022-12-18T12:52:41;76.63;;;26.75;;
801;SDS011;383;48.766;9.270;2022-12-18T12:55:13;69.45;;;24.48;;
801;SDS011;383;48.766;9.270;2022-12-18T12:57:45;72.70;;;26.67;;
801;SDS011;383;48.766;9.270;2022-12-18T13:00:17;69.47;;;27.25;;
801;SDS011;383;48.766;9.270;2022-12-18T13:02:47;67.50;;;25.90;;
801;SDS011;383;48.766;9.270;2022-12-18T13:05:24;90.65;;;30.88;;
801;SDS011;383;48.766;9.270;2022-12-18T13:07:56;85.05;;;32.92;;
801;SDS011;383;48.766;9.270;2022-12-18T13:10:32;79.93;;;25.60;;
801;SDS011;383;48.766;9.270;2022-12-18T13:13:05;68.93;;;27.27;;
801;SDS011;383;48.766;9.270;2022-12-18T13:15:33;59.20;;;22.02;;
801;SDS011;383;48.766;9.270;2022-12-18T13:18:04;67.22;;;24.33;;
801;SDS011;383;48.766;9.270;2022-12-18T13:20:44;64.68;;;25.13;;
801;SDS011;383;48.766;9.270;2022-12-18T13:23:28;59.28;;;23.73;;
801;SDS011;383;48.766;9.270;2022-12-18T13:25:57;60.20;;;23.48;;
801;SDS011;383;48.766;9.270;2022-12-18T13:31:57;62.30;;;24.15;;
801;SDS011;383;48.766;9.270;2022-12-18T13:34:36;66.18;;;25.00;;
801;SDS011;383;48.766;9.270;2022-12-18T13:43:22;82.90;;;25.92;;
801;SDS011;383;48.766;9.270;2022-12-18T13:46:04;70.82;;;24.73;;
801;SDS011;383;48.766;9.270;2022-12-18T13:48:47;58.13;;;24.92;;
801;SDS011;383;48.766;9.270;2022-12-18T13:51:18;68.60;;;24.30;;
801;SDS011;383;48.766;9.270;2022-12-18T13:53:48;66.22;;;25.65;;
801;SDS011;383;48.766;9.270;2022-12-18T13:56:17;76.82;;;27.17;;
801;SDS011;383;48.766;9.270;2022-12-18T14:01:44;64.55;;;24.83;;
801;SDS011;383;48.766;9.270;2022-12-18T14:04:16;69.93;;;26.48;;
801;SDS011;383;48.766;9.270;2022-12-18T14:06:47;82.38;;;27.42;;
801;SDS011;383;48.766;9.270;2022-12-18T14:09:23;69.85;;;28.67;;
801;SDS011;383;48.766;9.270;2022-12-18T14:11:52;65.13;;;26.52;;
801;SDS011;383;48.766;9.270;2022-12-18T14:14:41;102.60;;;34.10;;
801;SDS011;383;48.766;9.270;2022-12-18T14:17:10;96.65;;;37.75;;
801;SDS011;383;48.766;9.270;2022-12-18T14:19:40;91.57;;;33.30;;
801;SDS011;383;48.766;9.270;2022-12-18T14:22:13;70.32;;;29.10;;
801;SDS011;383;48.766;9.270;2022-12-18T14:24:42;66.88;;;30.77;;
801;SDS011;383;48.766;9.270;2022-12-18T14:27:17;77.75;;;31.42;;
801;SDS011;383;48.766;9.270;2022-12-18T14:29:47;72.70;;;30.65;;
801;SDS011;383;48.766;9.270;2022-12-18T14:32:14;83.55;;;32.60;;
801;SDS011;383;48.766;9.270;2022-12-18T14:34:42;73.03;;;30.00;;
801;SDS011;383;48.766;9.270;2022-12-18T14:37:10;76.32;;;27.80;;
801;SDS011;383;48.766;9.270;2022-12-18T14:39:39;73.80;;;28.15;;
801;SDS011;383;48.766;9.270;2022-12-18T14:42:09;68.65;;;25.65;;
801;SDS011;383;48.766;9.270;2022-12-18T14:44:36;65.15;;;24.75;;
801;SDS011;383;48.766;9.270;2022-12-18T14:47:03;79.07;;;27.08;;
801;SDS011;383;48.766;9.270;2022-12-18T14:49:30;69.63;;;25.52;;
801;SDS011;383;48.766;9.270;2022-12-18T14:51:59;67.88;;;27.83;;
801;SDS011;383;48.766;9.270;2022-12-18T14:54:27;56.33;;;24.15;;
801;SDS011;383;48.766;9.270;2022-12-18T14:56:58;65.32;;;23.63;;
801;SDS011;383;48.766;9.270;2022-12-18T14:59:28;76.80;;;28.10;;
801;SDS011;383;48.766;9.270;2022-12-18T15:01:57;60.35;;;24.58;;
801;SDS011;383;48.766;9.270;2022-12-18T15:04:30;74.90;;;26.25;;
801;SDS011;383;48.766;9.270;2022-12-18T15:07:11;72.90;;;24.77;;
801;SDS011;383;48.766;9.270;2022-12-18T15:09:41;71.65;;;25.50;;
801;SDS011;383;48.766;9.270;2022-12-18T15:12:24;63.35;;;23.75;;
801;SDS011;383;48.766;9.270;2022-12-18T15:14:54;68.80;;;25.58;;
801;SDS011;383;48.766;9.270;2022-12-18T15:17:21;81.68;;;27.52;;
801;SDS011;383;48.766;9.270;2022-12-18T15:19:52;72.75;;;25.23;;
801;SDS011;383;48.766;9.270;2022-12-18T15:22:25;64.40;;;24.27;;
801;SDS011;383;48.766;9.270;2022-12-18T15:24:54;74.43;;;25.73;;
801;SDS011;383;48.766;9.270;2022-12-18T15:27:24;77.53;;;25.98;;
801;SDS011;383;48.766;9.270;2022-12-18T15:32:46;65.57;;;24.60;;
801;SDS011;383;48.766;9.270;2022-12-18T15:35:15;88.97;;;29.30;;
801;SDS011;383;48.766;9.270;2022-12-18T15:37:43;81.78;;;28.15;;
801;SDS011;383;48.766;9.270;2022-12-18T15:40:14;103.07;;;35.97;;
801;SDS011;383;48.766;9.270;2022-12-18T15:42:43;101.18;;;33.60;;
801;SDS011;383;48.766;9.270;2022-12-18T15:45:28;99.85;;;32.50;;
801;SDS011;383;48.766;9.270;2022-12-18T15:47:56;87.50;;;30.98;;
801;SDS011;383;48.766;9.270;2022-12-18T15:50:23;79.65;;;29.42;;
801;SDS011;383;48.766;9.270;2022-12-18T15:52:51;77.60;;;29.02;;
801;SDS011;383;48.766;9.270;2022-12-18T15:55:21;83.72;;;28.77;;
801;SDS011;383;48.766;9.270;2022-12-18T15:58:08;79.25;;;27.50;;
801;SDS011;383;48.766;9.270;2022-12-18T16:00:36;76.32;;;26.77;;
801;SDS011;383;48.766;9.270;2022-12-18T16:03:05;79.20;;;29.70;;
801;SDS011;383;48.766;9.270;2022-12-18T16:05:32;82.28;;;28.25;;
801;SDS011;383;48.766;9.270;2022-12-18T16:07:59;86.38;;;33.33;;
801;SDS011;383;48.766;9.270;2022-12-18T16:10:26;89.75;;;30.83;;
801;SDS011;383;48.766;9.270;2022-12-18T16:12:53;85.30;;;29.00;;
801;SDS011;383;48.766;9.270;2022-12-18T16:15:22;75.70;;;27.52;;
801;SDS011;383;48.766;9.270;2022-12-18T16:17:48;84.95;;;30.65;;
801;SDS011;383;48.766;9.270;2022-12-18T16:20:17;94.82;;;30.65;;
801;SDS011;383;48.766;9.270;2022-12-18T16:22:45;112.15;;;32.78;;
801;SDS011;383;48.766;9.270;2022-12-18T16:25:17;85.63;;;30.83;;
801;SDS011;383;48.766;9.270;2022-12-18T16:27:45;101.40;;;34.10;;
801;SDS011;383;48.766;9.270;2022-12-18T16:30:12;78.25;;;31.30;;
801;SDS011;383;48.766;9.270;2022-12-18T16:32:41;74.57;;;27.40;;
801;SDS011;383;48.766;9.270;2022-12-18T16:35:09;90.18;;;32.80;;
801;SDS011;383;48.766;9.270;2022-12-18T16:37:37;78.32;;;26.20;;
801;SDS011;383;48.766;9.270;2022-12-18T16:40:05;64.43;;;27.92;;
801;SDS011;383;48.766;9.270;2022-12-18T16:42:34;79.63;;;31.23;;
801;SDS011;383;48.766;9.270;2022-12-18T16:45:02;79.82;;;27.38;;
801;SDS011;383;48.766;9.270;2022-12-18T16:47:30;83.13;;;31.13;;
801;SDS011;383;48.766;9.270;2022-12-18T16:49:58;97.25;;;30.80;;
801;SDS011;383;48.766;9.270;2022-12-18T16:52:25;95.05;;;31.80;;
801;SDS011;383;48.766;9.270;2022-12-18T16:54:52;101.10;;;32.67;;
801;SDS011;383;48.766;9.270;2022-12-18T16:57:19;98.13;;;29.35;;
801;SDS011;383;48.766;9.270;2022-12-18T16:59:47;89.38;;;30.30;;
801;SDS011;383;48.766;9.270;2022-12-18T17:02:15;91.45;;;29.80;;
801;SDS011;383;48.766;9.270;2022-12-18T17:04:43;94.47;;;30.70;;
801;SDS011;383;48.766;9.270;2022-12-18T17:07:12;78.30;;;30.58;;
801;SDS011;383;48.766;9.270;2022-12-18T17:09:40;88.65;;;29.17;;
801;SDS011;383;48.766;9.270;2022-12-18T17:12:07;103.45;;;31.92;;
801;SDS011;383;48.766;9.270;2022-12-18T17:14:35;75.85;;;25.85;;
801;SDS011;383;48.766;9.270;2022-12-18T17:17:02;80.03;;;27.50;;
801;SDS011;383;48.766;9.270;2022-12-18T17:19:29;62.17;;;24.98;;
801;SDS011;383;48.766;9.270;2022-12-18T17:21:56;61.63;;;25.58;;
801;SDS011;383;48.766;9.270;2022-12-18T17:24:24;67.82;;;25.95;;
801;SDS011;383;48.766;9.270;2022-12-18T17:26:51;73.45;;;25.40;;
801;SDS011;383;48.766;9.270;2022-12-18T17:29:18;78.78;;;28.50;;
801;SDS011;383;48.766;9.270;2022-12-18T17:31:46;84.53;;;28.15;;
801;SDS011;383;48.766;9.270;2022-12-18T17:34:13;120.63;;;32.40;;
801;SDS011;383;48.766;9.270;2022-12-18T17:36:40;91.75;;;33.25;;
801;SDS011;383;48.766;9.270;2022-12-18T17:39:10;73.97;;;28.00;;
801;SDS011;383;48.766;9.270;2022-12-18T17:41:44;64.03;;;23.20;;
801;SDS011;383;48.766;9.270;2022-12-18T17:44:12;62.65;;;21.90;;
801;SDS011;383;48.766;9.270;2022-12-18T17:46:40;75.78;;;25.17;;
801;SDS011;383;48.766;9.270;2022-12-18T17:49:07;68.93;;;23.17;;
801;SDS011;383;48.766;9.270;2022-12-18T17:51:35;67.32;;;23.67;;
801;SDS011;383;48.766;9.270;2022-12-18T17:54:01;69.55;;;25.42;;
801;SDS011;383;48.766;9.270;2022-12-18T17:56:29;86.45;;;32.30;;
801;SDS011;383;48.766;9.270;2022-12-18T17:58:57;70.03;;;26.48;;
801;SDS011;383;48.766;9.270;2022-12-18T18:01:24;93.05;;;28.95;;
801;SDS011;383;48.766;9.270;2022-12-18T18:03:51;77.80;;;24.55;;
801;SDS011;383;48.766;9.270;2022-12-18T18:06:19;64.40;;;20.42;;
801;SDS011;383;48.766;9.270;2022-12-18T18:08:47;71.25;;;24.95;;
801;SDS011;383;48.766;9.270;2022-12-18T18:11:15;64.10;;;24.55;;
801;SDS011;383;48.766;9.270;2022-12-18T18:14:02;67.18;;;22.52;;
801;SDS011;383;48.766;9.270;2022-12-18T18:16:32;77.35;;;25.63;;
801;SDS011;383;48.766;9.270;2022-12-18T18:19:00;59.38;;;22.27;;
801;SDS011;383;48.766;9.270;2022-12-18T18:21:29;66.95;;;26.13;;
801;SDS011;383;48.766;9.270;2022-12-18T18:23:58;73.10;;;23.50;;
801;SDS011;383;48.766;9.270;2022-12-18T18:26:26;53.10;;;21.63;;
801;SDS011;383;48.766;9.270;2022-12-18T18:28:55;55.55;;;23.60;;
801;SDS011;383;48.766;9.270;2022-12-18T18:31:24;64.88;;;24.98;;
801;SDS011;383;48.766;9.270;2022-12-18T18:33:52;68.13;;;24.35;;
801;SDS011;383;48.766;9.270;2022-12-18T18:36:19;74.03;;;26.38;;
801;SDS011;383;48.766;9.270;2022-12-18T18:38:46;67.60;;;24.60;;
801;SDS011;383;48.766;9.270;2022-12-18T18:41:13;67.28;;;24.63;;
801;SDS011;383;48.766;9.270;2022-12-18T18:43:40;73.32;;;23.52;;
801;SDS011;383;48.766;9.270;2022-12-18T18:46:08;89.18;;;30.95;;
801;SDS011;383;48.766;9.270;2022-12-18T18:48:39;135.13;;;48.40;;
801;SDS011;383;48.766;9.270;2022-12-18T18:51:07;73.40;;;29.05;;
801;SDS011;383;48.766;9.270;2022-12-18T18:53:36;107.97;;;32.47;;
801;SDS011;383;48.766;9.270;2022-12-18T18:56:04;63.90;;;23.35;;
801;SDS011;383;48.766;9.270;2022-12-18T18:58:32;113.50;;;35.53;;
801;SDS011;383;48.766;9.270;2022-12-18T19:00:59;96.70;;;34.30;;
801;SDS011;383;48.766;9.270;2022-12-18T19:03:27;101.57;;;31.92;;
801;SDS011;383;48.766;9.270;2022-12-18T19:05:56;128.52;;;40.67;;
801;SDS011;383;48.766;9.270;2022-12-18T19:08:26;84.95;;;30.23;;
801;SDS011;383;48.766;9.270;2022-12-18T19:10:54;72.05;;;26.85;;
801;SDS011;383;48.766;9.270;2022-12-18T19:13:23;84.95;;;30.17;;
801;SDS011;383;48.766;9.270;2022-12-18T19:15:51;70.82;;;26.38;;
801;SDS011;383;48.766;9.270;2022-12-18T19:18:19;155.80;;;49.53;;
801;SDS011;383;48.766;9.270;2022-12-18T19:20:55;79.22;;;30.95;;
801;SDS011;383;48.766;9.270;2022-12-18T19:23:23;80.00;;;28.98;;
801;SDS011;383;48.766;9.270;2022-12-18T19:25:50;80.95;;;27.20;;
801;SDS011;383;48.766;9.270;2022-12-18T19:28:18;68.55;;;26.27;;
801;SDS011;383;48.766;9.270;2022-12-18T19:30:50;87.70;;;27.73;;
801;SDS011;383;48.766;9.270;2022-12-18T19:33:19;88.03;;;27.65;;
801;SDS011;383;48.766;9.270;2022-12-18T19:35:46;54.63;;;22.42;;